createdAt,value
2023-01-17T00:00:30.219Z,13.96
2023-01-17T00:01:30.168Z,13.96
2023-01-17T00:02:30.178Z,13.85
2023-01-17T00:03:30.162Z,13.93
2023-01-17T00:04:30.145Z,13.77
2023-01-17T00:05:30.092Z,13.39
2023-01-17T00:06:30.069Z,13.52
2023-01-17T00:07:30.058Z,13.60
2023-01-17T00:08:30.062Z,13.41
2023-01-17T00:09:30.031Z,13.59
2023-01-17T00:10:30.042Z,13.66
2023-01-17T00:11:30.005Z,13.31
2023-01-17T00:12:29.993Z,13.57
2023-01-17T00:13:30.020Z,13.36
2023-01-17T00:14:29.967Z,13.31
2023-01-17T00:15:29.949Z,13.28
2023-01-17T00:16:29.950Z,12.99
2023-01-17T00:17:29.934Z,13.25
2023-01-17T00:18:29.929Z,13.03
2023-01-17T00:19:29.924Z,13.08
2023-01-17T00:20:29.913Z,13.09
2023-01-17T00:21:29.890Z,13.20
2023-01-17T00:22:29.891Z,12.79
2023-01-17T00:23:29.859Z,12.93
2023-01-17T00:24:29.854Z,13.26
2023-01-17T00:25:29.839Z,13.08
2023-01-17T00:26:29.831Z,12.81
2023-01-17T00:27:29.815Z,12.70
2023-01-17T00:28:29.798Z,12.89
2023-01-17T00:29:29.777Z,12.70
2023-01-17T00:30:29.761Z,12.71
2023-01-17T00:31:29.789Z,12.65
2023-01-17T00:32:29.729Z,12.67
2023-01-17T00:33:29.732Z,12.53
2023-01-17T00:34:29.695Z,12.52
2023-01-17T00:35:29.687Z,12.54
2023-01-17T00:36:29.676Z,12.55
2023-01-17T00:37:29.653Z,12.50
2023-01-17T00:38:29.648Z,12.70
2023-01-17T00:39:29.641Z,12.60
2023-01-17T00:40:29.649Z,12.53
2023-01-17T00:41:29.611Z,12.38
2023-01-17T00:42:29.586Z,12.40
2023-01-17T00:43:29.610Z,12.44
2023-01-17T00:44:29.566Z,12.57
2023-01-17T00:45:29.588Z,12.29
2023-01-17T00:46:29.560Z,12.34
2023-01-17T00:47:29.522Z,12.34
2023-01-17T00:48:29.540Z,12.32
2023-01-17T00:49:29.495Z,11.90
2023-01-17T00:50:29.500Z,12.08
2023-01-17T00:51:29.472Z,12.02
2023-01-17T00:52:29.453Z,12.19
2023-01-17T00:53:29.447Z,11.87
2023-01-17T00:54:29.425Z,12.00
2023-01-17T00:55:29.400Z,12.18
2023-01-17T00:56:29.391Z,11.96
2023-01-17T00:57:29.383Z,11.82
2023-01-17T00:58:29.367Z,11.86
2023-01-17T00:59:29.370Z,11.78
2023-01-17T01:00:29.352Z,11.73
2023-01-17T01:01:29.451Z,11.75
2023-01-17T01:02:29.357Z,11.75
2023-01-17T01:03:29.389Z,11.82
2023-01-17T01:04:29.301Z,11.97
2023-01-17T01:05:29.276Z,11.71
2023-01-17T01:06:29.264Z,11.74
2023-01-17T01:07:29.250Z,11.66
2023-01-17T01:08:29.228Z,11.78
2023-01-17T01:09:29.246Z,11.67
2023-01-17T01:10:29.203Z,11.71
2023-01-17T01:11:29.183Z,11.63
2023-01-17T01:12:29.193Z,11.64
2023-01-17T01:13:29.150Z,11.72
2023-01-17T01:14:29.145Z,11.61
2023-01-17T01:15:29.131Z,11.42
2023-01-17T01:16:29.134Z,11.43
2023-01-17T01:17:29.108Z,11.56
2023-01-17T01:18:29.094Z,11.38
2023-01-17T01:19:29.075Z,11.64
2023-01-17T01:20:29.059Z,11.34
2023-01-17T01:21:29.046Z,11.46
2023-01-17T01:22:29.031Z,11.48
2023-01-17T01:23:29.035Z,11.28
2023-01-17T01:24:29.000Z,11.15
2023-01-17T01:25:28.981Z,11.22
2023-01-17T01:26:28.979Z,11.14
2023-01-17T01:27:28.934Z,11.01
2023-01-17T01:28:28.943Z,11.02
2023-01-17T01:29:28.931Z,11.04
2023-01-17T01:30:28.904Z,11.17
2023-01-17T01:31:28.897Z,10.92
2023-01-17T01:32:28.861Z,10.78
2023-01-17T01:33:28.843Z,10.95
2023-01-17T01:34:28.830Z,10.91
2023-01-17T01:35:28.836Z,10.88
2023-01-17T01:36:28.788Z,10.74
2023-01-17T01:37:28.782Z,10.64
2023-01-17T01:38:28.771Z,10.87
2023-01-17T01:39:28.760Z,10.58
2023-01-17T01:40:28.727Z,10.70
2023-01-17T01:41:28.706Z,10.54
2023-01-17T01:42:28.687Z,10.47
2023-01-17T01:43:28.679Z,10.59
2023-01-17T01:44:28.692Z,10.56
2023-01-17T01:45:28.723Z,10.77
2023-01-17T01:46:28.631Z,10.52
2023-01-17T01:47:28.629Z,10.47
2023-01-17T01:48:28.601Z,10.49
2023-01-17T01:49:28.590Z,10.48
2023-01-17T01:50:28.585Z,10.48
2023-01-17T01:51:28.555Z,10.50
2023-01-17T01:52:28.552Z,10.38
2023-01-17T01:53:28.553Z,10.37
2023-01-17T01:54:28.528Z,10.29
2023-01-17T01:55:28.530Z,10.33
2023-01-17T01:56:28.492Z,10.22
2023-01-17T01:57:28.478Z,10.30
2023-01-17T01:58:28.460Z,10.28
2023-01-17T01:59:28.455Z,10.05
2023-01-17T02:00:28.452Z,9.96
2023-01-17T02:01:28.563Z,9.92
2023-01-17T02:02:28.412Z,10.00
2023-01-17T02:03:28.427Z,10.10
2023-01-17T02:04:28.385Z,9.86
2023-01-17T02:05:28.370Z,9.98
2023-01-17T02:06:28.371Z,10.12
2023-01-17T02:07:28.333Z,9.96
2023-01-17T02:08:28.323Z,9.81
2023-01-17T02:09:28.318Z,9.91
2023-01-17T02:10:28.291Z,9.74
2023-01-17T02:11:28.280Z,9.79
2023-01-17T02:12:28.258Z,9.73
2023-01-17T02:13:28.265Z,9.74
2023-01-17T02:14:28.230Z,9.97
2023-01-17T02:15:28.216Z,9.94
2023-01-17T02:16:28.293Z,9.79
2023-01-17T02:17:28.201Z,9.76
2023-01-17T02:18:28.187Z,9.76
2023-01-17T02:19:28.168Z,9.54
2023-01-17T02:20:28.177Z,9.51
2023-01-17T02:21:28.166Z,9.66
2023-01-17T02:22:28.127Z,9.49
2023-01-17T02:23:28.140Z,9.59
2023-01-17T02:24:28.114Z,9.44
2023-01-17T02:25:28.137Z,9.52
2023-01-17T02:26:28.101Z,9.35
2023-01-17T02:27:28.081Z,9.45
2023-01-17T02:28:28.070Z,9.53
2023-01-17T02:29:28.067Z,9.38
2023-01-17T02:30:28.039Z,9.39
2023-01-17T02:31:28.062Z,9.33
2023-01-17T02:32:28.005Z,9.21
2023-01-17T02:33:28.003Z,9.23
2023-01-17T02:34:27.992Z,9.31
2023-01-17T02:35:27.968Z,9.30
2023-01-17T02:36:27.949Z,9.30
2023-01-17T02:37:27.927Z,9.20
2023-01-17T02:38:27.921Z,9.16
2023-01-17T02:39:27.941Z,9.04
2023-01-17T02:40:27.890Z,9.00
2023-01-17T02:41:27.881Z,9.04
2023-01-17T02:42:27.895Z,8.94
2023-01-17T02:43:27.853Z,8.95
2023-01-17T02:44:27.850Z,9.10
2023-01-17T02:45:27.892Z,9.12
2023-01-17T02:46:27.831Z,9.08
2023-01-17T02:47:27.804Z,8.98
2023-01-17T02:48:27.792Z,8.86
2023-01-17T02:49:27.778Z,8.82
2023-01-17T02:50:27.806Z,8.88
2023-01-17T02:51:27.748Z,8.80
2023-01-17T02:52:27.732Z,8.67
2023-01-17T02:53:27.714Z,8.79
2023-01-17T02:54:27.701Z,8.74
2023-01-17T02:55:27.690Z,8.79
2023-01-17T02:56:27.684Z,8.67
2023-01-17T02:57:27.652Z,8.89
2023-01-17T02:58:27.635Z,8.67
2023-01-17T02:59:27.656Z,8.69
2023-01-17T03:00:27.609Z,8.69
2023-01-17T03:01:27.761Z,8.57
2023-01-17T03:02:27.666Z,8.71
2023-01-17T03:03:27.541Z,8.75
2023-01-17T03:04:27.535Z,8.67
2023-01-17T03:05:27.513Z,8.62
2023-01-17T03:06:27.494Z,8.63
2023-01-17T03:07:27.469Z,8.61
2023-01-17T03:08:27.451Z,8.67
2023-01-17T03:09:27.427Z,8.74
2023-01-17T03:10:27.425Z,8.48
2023-01-17T03:11:27.426Z,8.53
2023-01-17T03:12:27.380Z,8.62
2023-01-17T03:13:27.359Z,8.32
2023-01-17T03:14:27.364Z,8.45
2023-01-17T03:15:27.353Z,8.40
2023-01-17T03:16:27.420Z,8.35
2023-01-17T03:17:27.301Z,8.26
2023-01-17T03:18:27.288Z,8.25
2023-01-17T03:19:27.264Z,8.41
2023-01-17T03:20:27.268Z,8.32
2023-01-17T03:21:27.256Z,8.19
2023-01-17T03:22:27.220Z,8.14
2023-01-17T03:23:27.234Z,8.30
2023-01-17T03:24:27.200Z,8.20
2023-01-17T03:25:27.191Z,8.21
2023-01-17T03:26:27.173Z,8.23
2023-01-17T03:27:27.149Z,8.25
2023-01-17T03:28:27.141Z,8.28
2023-01-17T03:29:27.152Z,8.24
2023-01-17T03:30:27.177Z,8.28
2023-01-17T03:31:27.115Z,8.25
2023-01-17T03:32:27.079Z,8.22
2023-01-17T03:33:27.095Z,8.11
2023-01-17T03:34:27.061Z,8.10
2023-01-17T03:35:27.082Z,8.11
2023-01-17T03:36:27.048Z,7.96
2023-01-17T03:37:27.030Z,7.97
2023-01-17T03:38:27.015Z,8.03
2023-01-17T03:39:27.001Z,7.97
2023-01-17T03:40:26.997Z,8.02
2023-01-17T03:41:26.994Z,7.94
2023-01-17T03:42:26.976Z,8.10
2023-01-17T03:43:26.976Z,7.87
2023-01-17T03:44:26.968Z,7.89
2023-01-17T03:45:26.941Z,7.72
2023-01-17T03:47:26.934Z,7.93
2023-01-17T04:36:26.364Z,7.07
2023-01-17T04:37:26.342Z,6.96
2023-01-17T04:38:26.330Z,6.91
2023-01-17T04:39:26.312Z,6.98
2023-01-17T04:40:26.303Z,6.99
2023-01-17T04:41:26.273Z,7.01
2023-01-17T04:42:26.277Z,6.99
2023-01-17T04:43:26.245Z,7.01
2023-01-17T04:44:26.248Z,7.04
2023-01-17T04:45:26.278Z,7.02
2023-01-17T04:46:26.272Z,6.89
2023-01-17T04:47:26.222Z,7.04
2023-01-17T04:48:26.207Z,7.17
2023-01-17T04:49:26.176Z,7.18
2023-01-17T04:50:26.158Z,7.12
2023-01-17T04:51:26.145Z,7.06
2023-01-17T04:52:26.133Z,7.06
2023-01-17T04:53:26.135Z,7.03
2023-01-17T04:54:26.118Z,6.90
2023-01-17T04:55:26.095Z,6.91
2023-01-17T04:56:26.089Z,6.95
2023-01-17T04:57:26.074Z,6.99
2023-01-17T04:58:26.071Z,6.87
2023-01-17T04:59:26.055Z,6.82
2023-01-17T05:00:26.051Z,6.79
2023-01-17T05:01:26.153Z,6.75
2023-01-17T05:02:26.054Z,6.79
2023-01-17T05:03:26.011Z,6.71
2023-01-17T05:04:26.005Z,6.80
2023-01-17T05:05:25.984Z,6.70
2023-01-17T05:06:25.971Z,6.67
2023-01-17T05:07:25.964Z,6.75
2023-01-17T05:08:25.968Z,6.69
2023-01-17T05:09:25.948Z,6.76
2023-01-17T05:10:25.923Z,6.72
2023-01-17T05:11:25.913Z,6.73
2023-01-17T05:12:25.914Z,6.67
2023-01-17T05:13:25.901Z,6.55
2023-01-17T05:14:25.892Z,6.50
2023-01-17T05:15:25.925Z,6.57
2023-01-17T05:16:25.873Z,6.51
2023-01-17T05:17:25.857Z,6.52
2023-01-17T05:18:25.834Z,6.59
2023-01-17T05:19:25.828Z,6.50
2023-01-17T05:20:25.824Z,6.38
2023-01-17T05:21:25.823Z,6.49
2023-01-17T05:22:25.776Z,6.50
2023-01-17T05:23:25.760Z,6.45
2023-01-17T05:24:25.747Z,6.42
2023-01-17T05:25:25.731Z,6.41
2023-01-17T05:26:25.713Z,6.40
2023-01-17T05:27:25.725Z,6.34
2023-01-17T05:28:25.697Z,6.33
2023-01-17T05:29:25.677Z,6.35
2023-01-17T05:30:25.675Z,6.46
2023-01-17T05:31:25.764Z,6.30
2023-01-17T05:32:25.637Z,6.21
2023-01-17T05:33:25.634Z,6.28
2023-01-17T05:34:25.621Z,6.27
2023-01-17T05:35:25.615Z,6.45
2023-01-17T05:36:25.591Z,6.22
2023-01-17T05:37:25.580Z,6.18
2023-01-17T05:38:25.563Z,6.24
2023-01-17T05:39:25.547Z,6.21
2023-01-17T05:40:25.600Z,6.25
2023-01-17T05:41:25.530Z,6.28
2023-01-17T05:42:25.516Z,6.20
2023-01-17T05:43:25.530Z,6.18
2023-01-17T05:44:25.496Z,6.19
2023-01-17T05:45:25.471Z,6.11
2023-01-17T05:46:25.516Z,6.16
2023-01-17T05:47:25.442Z,6.21
2023-01-17T05:48:25.436Z,6.00
2023-01-17T05:49:25.428Z,6.08
2023-01-17T05:50:25.414Z,6.05
2023-01-17T05:51:25.400Z,6.03
2023-01-17T05:52:25.396Z,6.02
2023-01-17T05:53:25.377Z,6.04
2023-01-17T05:54:25.368Z,5.98
2023-01-17T05:55:25.343Z,6.02
2023-01-17T05:56:25.340Z,6.06
2023-01-17T05:57:25.325Z,5.92
2023-01-17T05:58:25.305Z,6.01
2023-01-17T05:59:36.484Z,5.94
2023-01-17T06:00:26.286Z,5.95
2023-01-17T06:01:25.303Z,5.95
2023-01-17T06:02:25.312Z,5.97
2023-01-17T06:03:25.232Z,5.91
2023-01-17T06:04:25.264Z,5.84
2023-01-17T06:05:25.202Z,5.84
2023-01-17T06:06:25.188Z,5.89
2023-01-17T06:07:25.175Z,5.77
2023-01-17T06:08:25.154Z,5.77
2023-01-17T06:09:25.179Z,5.83
2023-01-17T06:10:25.135Z,5.79
2023-01-17T06:11:25.110Z,5.79
2023-01-17T06:12:25.098Z,5.61
2023-01-17T06:13:25.093Z,5.58
2023-01-17T06:14:25.070Z,5.68
2023-01-17T06:15:25.028Z,5.69
2023-01-17T06:16:25.123Z,5.64
2023-01-17T06:17:25.027Z,5.48
2023-01-17T06:18:24.990Z,5.53
2023-01-17T06:19:24.989Z,5.42
2023-01-17T06:20:24.969Z,5.38
2023-01-17T06:21:24.936Z,5.33
2023-01-17T06:22:24.917Z,5.34
2023-01-17T06:23:24.902Z,5.31
2023-01-17T06:24:24.899Z,5.34
2023-01-17T06:25:24.882Z,5.14
2023-01-17T06:26:24.876Z,5.16
2023-01-17T06:27:24.847Z,5.03
2023-01-17T06:28:24.834Z,5.09
2023-01-17T06:29:24.837Z,5.09
2023-01-17T06:30:24.797Z,5.09
2023-01-17T06:31:24.798Z,4.93
2023-01-17T06:32:24.789Z,5.00
2023-01-17T06:33:24.754Z,4.86
2023-01-17T06:34:24.802Z,4.90
2023-01-17T06:35:24.741Z,4.86
2023-01-17T06:36:24.708Z,4.84
2023-01-17T06:37:24.709Z,4.69
2023-01-17T06:38:24.672Z,4.78
2023-01-17T06:39:24.793Z,4.87
2023-01-17T06:40:24.658Z,4.90
2023-01-17T06:41:24.632Z,4.89
2023-01-17T06:42:24.627Z,4.92
2023-01-17T06:43:24.596Z,5.01
2023-01-17T06:44:24.598Z,5.00
2023-01-17T06:45:24.844Z,5.09
2023-01-17T06:46:24.564Z,5.05
2023-01-17T06:47:24.514Z,5.10
2023-01-17T06:48:24.501Z,5.05
2023-01-17T06:49:24.478Z,5.09
2023-01-17T06:50:24.482Z,5.07
2023-01-17T06:51:24.445Z,5.17
2023-01-17T06:52:24.444Z,5.20
2023-01-17T06:53:24.446Z,5.20
2023-01-17T06:54:24.417Z,5.21
2023-01-17T06:55:24.383Z,5.23
2023-01-17T06:56:24.403Z,5.25
2023-01-17T06:57:24.349Z,5.22
2023-01-17T06:58:24.337Z,5.27
2023-01-17T06:59:24.327Z,5.30
2023-01-17T07:00:24.363Z,5.22
2023-01-17T07:01:24.359Z,5.26
2023-01-17T07:02:24.261Z,5.24
2023-01-17T07:03:24.253Z,5.26
2023-01-17T07:04:24.223Z,5.29
2023-01-17T07:05:24.202Z,5.27
2023-01-17T07:06:24.197Z,5.24
2023-01-17T07:07:24.205Z,5.16
2023-01-17T07:08:24.154Z,5.18
2023-01-17T07:09:24.161Z,5.21
2023-01-17T07:10:24.118Z,5.05
2023-01-17T10:19:21.297Z,3.51
2023-01-17T10:53:20.700Z,3.32
2023-01-17T10:54:20.681Z,3.36
2023-01-17T10:55:20.670Z,3.41
2023-01-17T10:56:20.651Z,3.41
2023-01-17T10:57:20.642Z,3.45
2023-01-17T10:58:20.612Z,3.47
2023-01-17T10:59:20.610Z,3.48
2023-01-17T11:00:20.586Z,3.47
2023-01-17T11:01:20.777Z,3.38
2023-01-17T11:02:20.665Z,3.43
2023-01-17T11:03:20.555Z,3.68
2023-01-17T11:04:20.556Z,3.64
2023-01-17T11:05:20.517Z,3.66
2023-01-17T11:06:20.500Z,3.64
2023-01-17T11:07:20.488Z,3.50
2023-01-17T11:08:20.468Z,3.52
2023-01-17T11:09:20.475Z,3.59
2023-01-17T11:10:20.449Z,3.70
2023-01-17T11:11:20.444Z,3.66
2023-01-17T11:12:20.429Z,3.59
2023-01-17T11:13:20.427Z,3.55
2023-01-17T11:14:20.395Z,3.61
2023-01-17T11:15:20.375Z,3.62
2023-01-17T11:16:20.359Z,3.63
2023-01-17T11:17:20.343Z,3.63
2023-01-17T11:18:20.334Z,3.65
2023-01-17T11:19:20.319Z,3.65
2023-01-17T11:20:20.358Z,3.72
2023-01-17T11:21:20.278Z,3.68
2023-01-17T11:22:20.269Z,3.70
2023-01-17T11:23:20.253Z,3.76
2023-01-17T11:24:20.255Z,3.83
2023-01-17T11:25:20.220Z,3.81
2023-01-17T11:26:20.219Z,3.81
2023-01-17T11:27:20.197Z,3.83
2023-01-17T11:28:20.189Z,3.81
2023-01-17T11:29:20.208Z,3.83
2023-01-17T11:30:20.200Z,3.87
2023-01-17T11:31:20.190Z,3.94
2023-01-17T11:32:20.146Z,4.04
2023-01-17T11:33:20.129Z,4.01
2023-01-17T11:34:20.120Z,4.02
2023-01-17T11:35:20.115Z,3.99
2023-01-17T11:36:20.089Z,3.97
2023-01-17T11:37:20.091Z,3.95
2023-01-17T11:38:20.066Z,3.93
2023-01-17T11:39:20.072Z,3.94
2023-01-17T11:40:20.048Z,3.73
2023-01-17T11:41:20.033Z,3.58
2023-01-17T11:42:20.025Z,3.56
2023-01-17T11:43:20.014Z,3.57
2023-01-17T11:44:20.004Z,3.37
2023-01-17T11:45:19.968Z,3.41
2023-01-17T11:46:20.003Z,3.31
2023-01-17T11:47:19.968Z,3.32
2023-01-17T11:48:19.939Z,3.25
2023-01-17T11:49:19.940Z,2.94
2023-01-17T11:50:19.909Z,3.20
2023-01-17T11:51:19.893Z,3.19
2023-01-17T11:52:19.887Z,3.11
2023-01-17T11:53:19.883Z,3.28
2023-01-17T11:54:19.861Z,3.15
2023-01-17T11:55:19.864Z,3.31
2023-01-17T11:56:19.839Z,3.41
2023-01-17T11:57:19.825Z,3.15
2023-01-17T11:58:19.856Z,3.17
2023-01-17T11:59:19.789Z,3.27
2023-01-17T12:00:19.850Z,3.24
2023-01-17T12:01:19.822Z,3.20
2023-01-17T12:02:19.746Z,3.29
2023-01-17T12:03:19.726Z,3.31
2023-01-17T12:04:19.718Z,3.32
2023-01-17T12:05:19.767Z,3.21
2023-01-17T12:06:19.695Z,3.27
2023-01-17T12:07:19.669Z,3.32
2023-01-17T12:08:19.643Z,3.30
2023-01-17T12:09:19.633Z,3.28
2023-01-17T12:10:19.626Z,3.45
2023-01-17T12:11:19.608Z,3.53
2023-01-17T12:12:19.575Z,3.56
2023-01-17T12:13:19.553Z,3.52
2023-01-17T12:14:19.551Z,3.48
2023-01-17T12:15:19.532Z,3.37
2023-01-17T12:16:19.527Z,3.34
2023-01-17T12:17:19.496Z,3.20
2023-01-17T12:18:19.494Z,3.19
2023-01-17T12:19:19.461Z,2.68
2023-01-17T12:20:20.737Z,2.72
2023-01-17T12:21:19.435Z,2.70
2023-01-17T12:22:19.428Z,2.67
2023-01-17T12:23:19.407Z,2.68
2023-01-17T12:24:19.398Z,2.70
2023-01-17T12:25:19.428Z,2.71
2023-01-17T12:26:19.389Z,2.71
2023-01-17T12:27:19.387Z,2.90
2023-01-17T12:28:19.343Z,3.19
2023-01-17T12:29:19.336Z,3.25
2023-01-17T12:30:19.332Z,3.25
2023-01-17T12:31:19.404Z,3.26
2023-01-17T12:32:19.309Z,3.32
2023-01-17T12:33:19.303Z,3.45
2023-01-17T12:34:19.274Z,3.44
2023-01-17T12:35:19.260Z,3.38
2023-01-17T12:36:19.243Z,3.38
2023-01-17T12:37:19.225Z,3.39
2023-01-17T12:38:31.764Z,3.46
2023-01-17T12:39:20.208Z,3.39
2023-01-17T12:40:19.186Z,3.42
2023-01-17T12:41:19.178Z,3.45
2023-01-17T12:42:19.147Z,3.55
2023-01-17T12:43:19.163Z,3.61
2023-01-17T12:44:19.129Z,3.85
2023-01-17T12:45:19.121Z,4.05
2023-01-17T12:46:19.121Z,4.03
2023-01-17T12:47:19.088Z,4.06
2023-01-17T12:48:19.057Z,4.04
2023-01-17T12:49:19.034Z,4.05
2023-01-17T12:50:19.040Z,4.15
2023-01-17T12:51:19.019Z,4.52
2023-01-17T12:52:19.021Z,4.12
2023-01-17T12:53:19.000Z,4.35
2023-01-17T12:54:18.973Z,4.46
2023-01-17T12:55:18.967Z,4.50
2023-01-17T12:56:18.939Z,3.80
2023-01-17T12:57:18.926Z,3.38
2023-01-17T12:58:18.903Z,3.16
2023-01-17T13:37:19.818Z,2.92
2023-01-17T15:09:16.528Z,2.61
2023-01-17T15:10:16.506Z,2.76
2023-01-17T15:11:16.471Z,2.63
2023-01-17T15:12:16.475Z,2.87
2023-01-17T15:13:16.448Z,2.90
2023-01-17T15:14:16.430Z,3.10
2023-01-17T15:15:16.423Z,2.82
2023-01-17T15:16:16.396Z,2.66
2023-01-17T15:17:16.360Z,2.31
2023-01-17T15:18:16.362Z,2.56
2023-01-17T15:19:16.327Z,2.93
2023-01-17T15:20:16.320Z,3.05
2023-01-17T15:21:16.314Z,3.01
2023-01-17T15:22:16.293Z,2.83
2023-01-17T15:23:16.269Z,2.88
2023-01-17T19:54:12.317Z,2.50
2023-01-17T19:55:12.318Z,2.52
2023-01-17T19:56:12.288Z,2.55
2023-01-17T19:57:12.280Z,2.53
2023-01-17T19:58:13.234Z,2.55
2023-01-17T19:59:12.250Z,2.53
2023-01-17T20:00:12.261Z,2.51
2023-01-17T20:01:12.293Z,2.55
2023-01-17T20:02:12.439Z,2.53
2023-01-17T20:03:12.223Z,2.53
2023-01-17T20:04:12.204Z,2.54
2023-01-17T20:05:12.217Z,2.54
2023-01-17T20:06:12.191Z,2.51
2023-01-17T20:07:12.172Z,2.49
2023-01-17T20:08:12.164Z,2.51
2023-01-17T20:09:12.146Z,2.49
2023-01-17T20:10:12.131Z,2.53
2023-01-17T20:11:12.127Z,2.52
2023-01-17T20:12:12.111Z,2.55
2023-01-17T20:13:12.108Z,2.51
2023-01-17T20:14:12.117Z,2.51
2023-01-17T20:15:12.090Z,2.52
2023-01-17T20:16:12.132Z,2.51
2023-01-17T20:17:12.073Z,2.50
2023-01-17T20:18:12.076Z,2.50
2023-01-17T20:19:12.050Z,2.50
2023-01-17T20:20:12.032Z,2.48
2023-01-17T20:21:12.021Z,2.49
2023-01-17T20:22:12.016Z,2.46
2023-01-17T20:23:12.007Z,2.46
2023-01-17T20:24:11.989Z,2.46
2023-01-17T20:25:11.970Z,2.47
2023-01-17T20:26:11.963Z,2.44
2023-01-17T20:27:11.931Z,2.48
2023-01-17T20:28:11.922Z,2.48
2023-01-17T20:29:11.901Z,2.44
2023-01-17T20:30:20.210Z,2.48
2023-01-17T20:31:12.862Z,2.48
2023-01-17T20:32:11.834Z,2.49
2023-01-17T20:33:11.832Z,2.48
2023-01-17T20:34:11.819Z,2.49
2023-01-17T20:35:11.798Z,2.52
2023-01-17T20:36:11.785Z,2.47
2023-01-17T20:37:11.757Z,2.48
2023-01-17T20:38:11.764Z,2.49
2023-01-17T20:39:11.758Z,2.52
2023-01-17T20:40:11.738Z,2.48
2023-01-17T20:41:11.715Z,2.50
2023-01-17T20:42:11.705Z,2.49
2023-01-17T20:43:11.683Z,2.47
2023-01-17T20:44:11.673Z,2.45
2023-01-17T20:45:11.663Z,2.48
2023-01-17T20:46:11.670Z,2.46
2023-01-17T20:47:11.630Z,2.45
2023-01-17T20:48:11.616Z,2.46
2023-01-17T20:49:11.604Z,2.46
2023-01-17T20:50:11.590Z,2.45
2023-01-17T20:51:11.585Z,2.47
2023-01-17T20:52:12.977Z,2.46
2023-01-17T20:53:11.541Z,2.46
2023-01-17T20:54:11.525Z,2.45
2023-01-17T20:55:11.511Z,2.47
2023-01-17T20:56:11.508Z,2.47
2023-01-17T20:57:11.488Z,2.44
2023-01-17T20:58:11.480Z,2.49
2023-01-17T20:59:11.439Z,2.47
2023-01-17T21:00:11.435Z,2.42
2023-01-17T21:01:11.451Z,2.43
2023-01-17T21:02:11.625Z,2.44
2023-01-17T21:03:11.379Z,2.47
2023-01-17T21:04:11.368Z,2.45
2023-01-17T21:05:11.348Z,2.45
2023-01-17T21:06:11.334Z,2.42
2023-01-17T21:07:11.312Z,2.45
2023-01-17T21:08:11.304Z,2.44
2023-01-17T21:09:11.277Z,2.45
2023-01-17T21:10:11.256Z,2.45
2023-01-17T21:11:11.250Z,2.47
2023-01-17T21:12:11.245Z,2.44
2023-01-17T21:13:11.213Z,2.42
2023-01-17T21:14:11.228Z,2.43
2023-01-17T21:15:11.185Z,2.44
2023-01-17T21:16:11.160Z,2.44
2023-01-17T21:17:11.141Z,2.38
2023-01-17T21:18:11.126Z,2.42
2023-01-17T21:19:11.122Z,2.40
2023-01-17T21:20:11.101Z,2.45
2023-01-17T21:21:11.084Z,2.41
2023-01-17T21:22:11.073Z,2.40
2023-01-17T21:23:11.039Z,2.41
2023-01-17T21:24:11.039Z,2.41
2023-01-17T21:25:11.014Z,2.41
2023-01-17T21:26:11.022Z,2.43
2023-01-17T21:27:10.989Z,2.39
2023-01-17T21:28:11.001Z,2.42
2023-01-17T21:29:10.969Z,2.40
2023-01-17T21:30:10.960Z,2.43
2023-01-17T21:31:10.927Z,2.40
2023-01-17T21:32:10.903Z,2.38
2023-01-17T21:33:10.885Z,2.41
2023-01-17T21:34:10.884Z,2.39
2023-01-17T21:35:10.856Z,2.42
2023-01-17T21:36:10.844Z,2.38
2023-01-17T21:37:10.817Z,2.40
2023-01-17T21:38:10.799Z,2.40
2023-01-17T21:39:10.780Z,2.41
2023-01-17T21:40:10.772Z,2.40
2023-01-17T21:41:10.752Z,2.38
2023-01-17T21:42:10.741Z,2.43
2023-01-17T21:43:10.735Z,2.41
2023-01-17T21:44:10.707Z,2.37
2023-01-17T21:45:10.693Z,2.38
2023-01-17T21:46:10.740Z,2.38
2023-01-17T21:47:10.663Z,2.42
2023-01-17T21:48:10.635Z,2.39
2023-01-17T21:49:10.794Z,2.37
2023-01-17T21:50:10.607Z,2.38
2023-01-17T21:51:10.603Z,2.37
2023-01-17T21:52:10.586Z,2.37
2023-01-17T21:53:10.549Z,2.37
2023-01-17T21:54:10.537Z,2.38
2023-01-17T21:55:10.534Z,2.37
2023-01-17T21:56:10.507Z,2.37
2023-01-17T21:57:10.496Z,2.39
2023-01-17T21:58:10.475Z,2.37
2023-01-17T21:59:10.464Z,2.37
2023-01-17T22:00:10.452Z,2.36
2023-01-17T22:01:10.521Z,2.37
2023-01-17T22:02:10.582Z,2.37
2023-01-17T22:03:10.389Z,2.33
2023-01-17T22:04:10.386Z,2.41
2023-01-17T22:05:10.342Z,2.33
2023-01-17T22:06:10.314Z,2.37
2023-01-17T22:07:10.301Z,2.35
2023-01-17T22:08:10.287Z,2.35
2023-01-17T22:09:10.286Z,2.36
2023-01-17T22:10:10.263Z,2.35
2023-01-17T22:11:10.245Z,2.36
2023-01-17T22:12:10.231Z,2.37
2023-01-17T22:13:10.217Z,2.34
2023-01-17T22:14:10.198Z,2.38
2023-01-17T22:15:10.200Z,2.33
2023-01-17T22:16:10.223Z,2.36
2023-01-17T22:17:10.134Z,2.35
2023-01-17T22:18:10.123Z,2.33
2023-01-17T22:19:10.112Z,2.36
2023-01-17T22:20:10.102Z,2.37
2023-01-17T22:21:10.103Z,2.34
2023-01-17T22:22:10.071Z,2.37
2023-01-17T22:23:10.072Z,2.33
2023-01-17T22:24:10.048Z,2.36
2023-01-17T22:25:10.042Z,2.31
2023-01-17T22:26:10.012Z,2.32
2023-01-17T22:27:09.994Z,2.29
2023-01-17T22:28:09.971Z,2.33
2023-01-17T22:29:09.957Z,2.31
2023-01-17T22:30:09.946Z,2.33
2023-01-17T22:31:09.941Z,2.31
2023-01-17T22:32:09.902Z,2.31
2023-01-17T22:33:09.886Z,2.31
2023-01-17T22:34:09.881Z,2.32
2023-01-17T22:35:09.842Z,2.33
2023-01-17T22:36:09.862Z,2.35
2023-01-17T22:37:09.865Z,2.31
2023-01-17T22:38:09.804Z,2.34
2023-01-17T22:39:09.786Z,2.32
2023-01-17T22:40:09.825Z,2.33
2023-01-17T22:41:09.760Z,2.31
2023-01-17T22:42:09.737Z,2.33
2023-01-17T22:43:09.713Z,2.28
2023-01-17T22:44:09.692Z,2.34
2023-01-17T22:45:09.692Z,2.33
2023-01-17T22:46:09.702Z,2.30
2023-01-17T22:47:09.648Z,2.28
2023-01-17T22:48:09.618Z,2.33
2023-01-17T22:49:09.608Z,2.29
2023-01-17T22:50:09.579Z,2.29
2023-01-17T22:51:09.573Z,2.30
2023-01-17T22:52:09.562Z,2.30
2023-01-17T22:53:09.527Z,2.30
2023-01-17T22:54:09.526Z,2.31
2023-01-17T22:55:09.497Z,2.33
2023-01-17T22:56:09.512Z,2.29
2023-01-17T22:57:09.453Z,2.30
2023-01-17T22:58:09.437Z,2.29
2023-01-17T22:59:09.421Z,2.30
2023-01-17T23:00:09.401Z,2.30
2023-01-17T23:01:09.568Z,2.32
2023-01-17T23:02:09.369Z,2.28
2023-01-17T23:03:09.482Z,2.27
2023-01-17T23:04:09.314Z,2.29
2023-01-17T23:05:09.307Z,2.28
2023-01-17T23:06:09.276Z,2.28
2023-01-17T23:07:09.262Z,2.27
2023-01-17T23:08:09.250Z,2.28
2023-01-17T23:09:09.232Z,2.25
2023-01-17T23:10:09.221Z,2.23
2023-01-17T23:11:09.196Z,2.28
2023-01-17T23:12:09.192Z,2.27
2023-01-17T23:13:09.165Z,2.27
2023-01-17T23:14:09.137Z,2.25
2023-01-17T23:15:09.122Z,2.27
2023-01-17T23:16:09.154Z,2.23
2023-01-17T23:17:09.108Z,2.24
2023-01-17T23:18:09.085Z,2.24
2023-01-17T23:19:09.049Z,2.24
2023-01-17T23:20:09.021Z,2.26
2023-01-17T23:21:09.030Z,2.26
2023-01-17T23:22:08.981Z,2.25
2023-01-17T23:23:08.970Z,2.23
2023-01-17T23:24:08.937Z,2.25
2023-01-17T23:25:08.953Z,2.26
2023-01-17T23:26:08.912Z,2.25
